Time;durP1;ratioP1;P1;durP2;ratioP2;P2;SDS_P1;SDS_P2;PMS_P1;PMS_P2;Temp;Humidity;BMP_temperature;BMP_pressure;BME280_temperature;BME280_humidity;BME280_pressure;Samples;Min_cycle;Max_cycle;Signal;HPM_P1;HPM_P2
2022/11/22 00:00:53;;;;;;;29.35;17.15;;;;;;;;;;5103248;28;20043;-64
2022/11/22 00:03:19;;;;;;;27.60;16.38;;;;;;;;;;5099597;28;20032;-64
2022/11/22 00:05:45;;;;;;;30.80;16.02;;;;;;;;;;5094662;28;20046;-65
2022/11/22 00:08:11;;;;;;;26.98;16.10;;;;;;;;;;5091500;28;20044;-64
2022/11/22 00:10:37;;;;;;;26.88;15.77;;;;;;;;;;5092340;28;20122;-64
2022/11/22 00:13:03;;;;;;;34.45;17.25;;;;;;;;;;5108044;27;20059;-64
2022/11/22 00:15:30;;;;;;;29.08;16.60;;;;;;;;;;5112117;27;20051;-65
2022/11/22 00:17:56;;;;;;;25.30;15.75;;;;;;;;;;5101502;27;20054;-64
2022/11/22 00:20:22;;;;;;;29.52;16.13;;;;;;;;;;5098965;28;20032;-64
2022/11/22 00:22:48;;;;;;;25.58;15.70;;;;;;;;;;5100030;27;20027;-64
2022/11/22 00:25:14;;;;;;;30.27;16.13;;;;;;;;;;5105542;27;20031;-64
2022/11/22 00:27:40;;;;;;;31.88;16.52;;;;;;;;;;5126447;27;20053;-64
2022/11/22 00:30:07;;;;;;;26.05;15.25;;;;;;;;;;5113371;27;20035;-64
2022/11/22 00:32:33;;;;;;;28.27;15.43;;;;;;;;;;5124495;27;20066;-64
2022/11/22 00:35:00;;;;;;;26.33;14.00;;;;;;;;;;5120316;27;20035;-64
2022/11/22 00:37:26;;;;;;;27.77;14.90;;;;;;;;;;5123960;27;20043;-64
2022/11/22 00:39:52;;;;;;;26.60;16.20;;;;;;;;;;5119672;27;20038;-64
2022/11/22 00:42:18;;;;;;;23.70;14.40;;;;;;;;;;5115086;27;20046;-64
2022/11/22 00:44:44;;;;;;;24.50;14.38;;;;;;;;;;5129515;27;20132;-64
2022/11/22 00:47:10;;;;;;;21.67;13.02;;;;;;;;;;5111013;27;20039;-65
2022/11/22 00:49:36;;;;;;;23.17;14.70;;;;;;;;;;5118089;27;20035;-64
2022/11/22 00:52:02;;;;;;;26.77;14.77;;;;;;;;;;5120643;27;20035;-64
2022/11/22 00:54:28;;;;;;;22.48;13.82;;;;;;;;;;5109158;27;20039;-64
2022/11/22 00:56:54;;;;;;;28.88;15.55;;;;;;;;;;5117930;27;20080;-64
2022/11/22 00:59:21;;;;;;;23.17;14.20;;;;;;;;;;5127713;27;20042;-64
2022/11/22 01:01:47;;;;;;;23.30;14.55;;;;;;;;;;5123980;27;20038;-64
2022/11/22 01:04:13;;;;;;;28.10;15.82;;;;;;;;;;5106809;27;20095;-64
2022/11/22 01:06:39;;;;;;;27.45;14.55;;;;;;;;;;5126571;27;20035;-64
2022/11/22 01:09:05;;;;;;;23.83;14.77;;;;;;;;;;5124899;27;20038;-64
2022/11/22 01:11:31;;;;;;;21.05;13.07;;;;;;;;;;5116699;27;20442;-64
2022/11/22 01:13:57;;;;;;;19.83;12.48;;;;;;;;;;5109162;27;20055;-64
2022/11/22 01:16:23;;;;;;;23.48;14.30;;;;;;;;;;5123329;27;20036;-64
2022/11/22 01:18:49;;;;;;;19.35;12.55;;;;;;;;;;5104098;28;20036;-64
2022/11/22 01:21:16;;;;;;;25.95;13.13;;;;;;;;;;5124474;27;20038;-64
2022/11/22 01:23:42;;;;;;;20.77;13.55;;;;;;;;;;5126448;27;20035;-64
2022/11/22 01:26:08;;;;;;;17.63;11.55;;;;;;;;;;5110439;28;20118;-64
2022/11/22 01:28:35;;;;;;;19.45;12.88;;;;;;;;;;5104639;28;20046;-65
2022/11/22 01:31:01;;;;;;;22.40;13.50;;;;;;;;;;5091539;28;20051;-64
2022/11/22 01:33:28;;;;;;;19.25;11.35;;;;;;;;;;5117781;28;20039;-65
2022/11/22 01:35:54;;;;;;;17.48;11.77;;;;;;;;;;5121450;28;20031;-64
2022/11/22 01:38:20;;;;;;;21.20;11.82;;;;;;;;;;5120483;28;20444;-64
2022/11/22 01:40:46;;;;;;;18.95;11.48;;;;;;;;;;5127856;28;20054;-64
2022/11/22 01:43:17;;;;;;;18.63;12.68;;;;;;;;;;5120922;28;20566;-64
2022/11/22 01:45:45;;;;;;;20.98;11.68;;;;;;;;;;5117726;28;20466;-64
2022/11/22 01:48:11;;;;;;;20.38;12.13;;;;;;;;;;5122268;28;20035;-64
2022/11/22 01:50:39;;;;;;;18.60;11.93;;;;;;;;;;5120330;28;20069;-65
2022/11/22 01:53:17;;;;;;;23.17;13.48;;;;;;;;;;5117632;28;20051;-64
2022/11/22 01:55:44;;;;;;;24.77;14.15;;;;;;;;;;5120425;28;20042;-64
2022/11/22 01:58:12;;;;;;;18.52;12.55;;;;;;;;;;5119786;28;20088;-65
2022/11/22 02:00:38;;;;;;;17.52;13.02;;;;;;;;;;5121288;28;20548;-64
2022/11/22 02:03:07;;;;;;;20.20;11.60;;;;;;;;;;5121039;28;20100;-63
2022/11/22 02:05:34;;;;;;;22.80;13.63;;;;;;;;;;5101239;28;20094;-64
2022/11/22 02:08:03;;;;;;;21.80;13.57;;;;;;;;;;5126864;28;20502;-64
2022/11/22 02:10:29;;;;;;;19.92;13.55;;;;;;;;;;5119070;28;20093;-64
2022/11/22 02:12:57;;;;;;;21.77;12.45;;;;;;;;;;5124646;28;20535;-65
2022/11/22 02:15:23;;;;;;;20.60;12.80;;;;;;;;;;5114525;28;20130;-64
2022/11/22 02:17:49;;;;;;;20.23;12.77;;;;;;;;;;5120370;28;20042;-64
2022/11/22 02:20:16;;;;;;;16.83;11.73;;;;;;;;;;5119136;28;20055;-64
2022/11/22 02:22:45;;;;;;;21.38;12.35;;;;;;;;;;5114384;28;20385;-64
2022/11/22 02:25:38;;;;;;;21.52;12.98;;;;;;;;;;5103513;28;20047;-64
2022/11/22 02:28:04;;;;;;;19.55;13.45;;;;;;;;;;5087013;28;20132;-64
2022/11/22 02:30:30;;;;;;;22.77;13.43;;;;;;;;;;5115600;28;20048;-64
2022/11/22 02:32:57;;;;;;;20.42;13.27;;;;;;;;;;5126986;27;20087;-64
2022/11/22 02:35:24;;;;;;;24.65;15.10;;;;;;;;;;5085162;27;20068;-64
2022/11/22 02:37:56;;;;;;;24.85;14.93;;;;;;;;;;5114845;27;20559;-64
2022/11/22 02:40:22;;;;;;;22.65;13.93;;;;;;;;;;5122119;27;20126;-64
2022/11/22 02:42:52;;;;;;;22.90;13.88;;;;;;;;;;5127438;27;20084;-64
2022/11/22 02:45:18;;;;;;;21.35;14.90;;;;;;;;;;5105793;27;20042;-64
2022/11/22 02:47:44;;;;;;;27.17;14.73;;;;;;;;;;5129514;27;20035;-64
2022/11/22 02:50:10;;;;;;;22.52;13.88;;;;;;;;;;5109218;27;20131;-64
2022/11/22 02:52:36;;;;;;;22.33;13.65;;;;;;;;;;5120674;27;20391;-64
2022/11/22 02:55:02;;;;;;;28.00;14.43;;;;;;;;;;5114358;27;20035;-64
2022/11/22 02:57:28;;;;;;;23.20;14.60;;;;;;;;;;5124090;27;20130;-64
2022/11/22 02:59:54;;;;;;;24.13;15.07;;;;;;;;;;5127783;27;20524;-64
2022/11/22 03:02:20;;;;;;;23.40;13.68;;;;;;;;;;5122973;27;20032;-64
2022/11/22 03:04:46;;;;;;;21.50;14.10;;;;;;;;;;5121076;27;20066;-64
2022/11/22 03:07:13;;;;;;;24.55;14.95;;;;;;;;;;5126581;27;20035;-64
2022/11/22 03:09:39;;;;;;;24.35;13.80;;;;;;;;;;5126865;27;20039;-65
2022/11/22 03:12:05;;;;;;;25.90;16.25;;;;;;;;;;5122759;27;20100;-65
2022/11/22 03:14:31;;;;;;;19.42;13.95;;;;;;;;;;5118619;27;20535;-65
2022/11/22 03:16:57;;;;;;;24.23;13.98;;;;;;;;;;5124792;27;20039;-65
2022/11/22 03:19:23;;;;;;;23.23;13.20;;;;;;;;;;5122476;27;20040;-65
2022/11/22 03:21:50;;;;;;;21.30;14.68;;;;;;;;;;5090080;27;20170;-66
2022/11/22 03:24:16;;;;;;;25.05;15.27;;;;;;;;;;5121443;27;20546;-65
2022/11/22 03:26:45;;;;;;;25.90;14.02;;;;;;;;;;5123519;27;20055;-65
2022/11/22 03:29:12;;;;;;;21.25;14.30;;;;;;;;;;5120625;27;20036;-64
2022/11/22 03:31:38;;;;;;;21.35;14.27;;;;;;;;;;5114145;27;20059;-64
2022/11/22 03:34:04;;;;;;;30.00;16.08;;;;;;;;;;5122902;27;20061;-65
2022/11/22 03:36:30;;;;;;;32.15;16.17;;;;;;;;;;5112403;27;20046;-64
2022/11/22 03:38:56;;;;;;;22.52;15.57;;;;;;;;;;5122608;27;20040;-64
2022/11/22 03:41:22;;;;;;;23.30;13.98;;;;;;;;;;5099386;27;20035;-64
2022/11/22 03:43:48;;;;;;;23.13;13.57;;;;;;;;;;5111704;27;20555;-64
2022/11/22 03:46:15;;;;;;;22.08;14.70;;;;;;;;;;5129912;27;20135;-64
2022/11/22 03:48:41;;;;;;;23.33;14.55;;;;;;;;;;5122582;27;20060;-64
2022/11/22 03:51:07;;;;;;;22.77;14.77;;;;;;;;;;5126214;27;20050;-64
2022/11/22 03:53:33;;;;;;;19.10;13.57;;;;;;;;;;5129974;27;20492;-64
2022/11/22 03:56:00;;;;;;;21.08;13.98;;;;;;;;;;5111862;27;20081;-64
2022/11/22 03:58:26;;;;;;;22.27;15.00;;;;;;;;;;5129170;27;20114;-65
2022/11/22 04:00:52;;;;;;;21.45;14.07;;;;;;;;;;5126218;27;20480;-64
2022/11/22 04:03:18;;;;;;;22.17;13.68;;;;;;;;;;5128166;27;20461;-64
2022/11/22 04:05:44;;;;;;;21.42;14.80;;;;;;;;;;5124929;27;20039;-64
2022/11/22 04:08:10;;;;;;;24.70;14.90;;;;;;;;;;5127783;27;20043;-64
2022/11/22 04:10:36;;;;;;;22.73;14.85;;;;;;;;;;5122024;27;20034;-64
2022/11/22 04:13:03;;;;;;;23.45;14.90;;;;;;;;;;5108792;27;20480;-64
2022/11/22 04:15:29;;;;;;;23.75;14.70;;;;;;;;;;5120971;27;20054;-64
2022/11/22 04:17:55;;;;;;;22.67;14.57;;;;;;;;;;5125364;27;20066;-64
2022/11/22 04:23:09;;;;;;;23.40;15.02;;;;;;;;;;5121208;27;20110;-64
2022/11/22 04:25:36;;;;;;;22.67;15.23;;;;;;;;;;5127286;27;20073;-64
2022/11/22 04:28:03;;;;;;;24.40;14.05;;;;;;;;;;5111966;27;20036;-64
2022/11/22 04:33:14;;;;;;;22.27;15.45;;;;;;;;;;5124402;27;20039;-64
2022/11/22 04:35:41;;;;;;;21.85;14.85;;;;;;;;;;5116786;27;20043;-64
2022/11/22 04:38:07;;;;;;;24.85;13.50;;;;;;;;;;5110020;27;20489;-64
2022/11/22 04:40:33;;;;;;;22.42;14.70;;;;;;;;;;5111524;27;20042;-64
2022/11/22 04:45:44;;;;;;;25.50;16.15;;;;;;;;;;5123410;27;20069;-64
2022/11/22 04:48:11;;;;;;;25.90;14.52;;;;;;;;;;5124451;27;20099;-64
2022/11/22 04:53:23;;;;;;;27.05;14.93;;;;;;;;;;5117829;27;20055;-64
2022/11/22 04:55:49;;;;;;;26.38;14.65;;;;;;;;;;5127999;27;20058;-64
2022/11/22 04:58:15;;;;;;;25.52;15.95;;;;;;;;;;5126248;27;20039;-64
2022/11/22 05:00:41;;;;;;;20.45;13.48;;;;;;;;;;5126703;27;20039;-65
2022/11/22 05:03:07;;;;;;;24.70;14.13;;;;;;;;;;5122737;27;20084;-64
2022/11/22 05:05:35;;;;;;;25.17;14.93;;;;;;;;;;5126284;27;20035;-65
2022/11/22 05:08:01;;;;;;;26.20;15.88;;;;;;;;;;5127146;27;20062;-64
2022/11/22 05:10:27;;;;;;;20.33;14.45;;;;;;;;;;5114677;27;20085;-64
2022/11/22 05:12:55;;;;;;;22.15;14.90;;;;;;;;;;5105645;27;20059;-65
2022/11/22 05:15:21;;;;;;;24.85;15.98;;;;;;;;;;5118881;27;20146;-65
2022/11/22 05:17:47;;;;;;;20.23;15.90;;;;;;;;;;5127196;27;20077;-64
2022/11/22 05:20:13;;;;;;;24.20;16.73;;;;;;;;;;5116426;27;20065;-65
2022/11/22 05:25:24;;;;;;;21.75;15.32;;;;;;;;;;5113809;27;20066;-65
2022/11/22 05:27:53;;;;;;;27.23;15.85;;;;;;;;;;5121382;27;20032;-64
2022/11/22 05:30:19;;;;;;;25.77;15.98;;;;;;;;;;5099826;28;20066;-65
2022/11/22 05:32:45;;;;;;;28.58;16.08;;;;;;;;;;5120664;27;20078;-65
2022/11/22 05:35:11;;;;;;;19.48;13.30;;;;;;;;;;5107886;28;20497;-65
2022/11/22 05:37:37;;;;;;;18.30;13.90;;;;;;;;;;5115217;28;20092;-64
2022/11/22 05:40:03;;;;;;;28.80;14.77;;;;;;;;;;5124914;28;20392;-64
2022/11/22 05:42:29;;;;;;;21.98;14.70;;;;;;;;;;5119871;28;20040;-64
2022/11/22 05:44:55;;;;;;;20.90;15.10;;;;;;;;;;5126018;28;20039;-64
2022/11/22 05:47:21;;;;;;;22.05;15.30;;;;;;;;;;5104759;28;20043;-65
2022/11/22 05:49:48;;;;;;;21.23;14.25;;;;;;;;;;5120925;28;20042;-64
2022/11/22 05:52:14;;;;;;;24.63;15.07;;;;;;;;;;5106603;28;20495;-64
2022/11/22 05:54:40;;;;;;;22.80;14.63;;;;;;;;;;5120018;28;20043;-64
2022/11/22 05:57:06;;;;;;;25.20;14.82;;;;;;;;;;5123754;28;20107;-65
2022/11/22 05:59:32;;;;;;;23.77;14.77;;;;;;;;;;5105745;28;20042;-65
2022/11/22 06:01:58;;;;;;;23.35;15.00;;;;;;;;;;5121788;28;20046;-64
2022/11/22 06:04:24;;;;;;;20.95;14.60;;;;;;;;;;5112294;28;20043;-65
2022/11/22 06:06:51;;;;;;;19.17;13.65;;;;;;;;;;5127721;27;20420;-65
2022/11/22 06:09:17;;;;;;;23.80;15.20;;;;;;;;;;5121024;27;20031;-64
2022/11/22 06:11:43;;;;;;;22.75;14.98;;;;;;;;;;5117713;27;20038;-64
2022/11/22 06:14:09;;;;;;;21.63;14.95;;;;;;;;;;5102694;27;20500;-64
2022/11/22 06:16:35;;;;;;;19.52;15.10;;;;;;;;;;5121461;27;20043;-65
2022/11/22 06:19:01;;;;;;;22.13;14.05;;;;;;;;;;5125535;27;20074;-65
2022/11/22 06:21:27;;;;;;;21.15;14.98;;;;;;;;;;5122166;27;20500;-65
2022/11/22 06:23:54;;;;;;;18.80;12.13;;;;;;;;;;5128308;27;20510;-64
2022/11/22 06:26:21;;;;;;;20.02;14.68;;;;;;;;;;5130417;27;20034;-65
2022/11/22 06:28:47;;;;;;;22.15;13.18;;;;;;;;;;5120835;27;20069;-64
2022/11/22 06:31:15;;;;;;;18.52;13.02;;;;;;;;;;5131879;27;20050;-64
2022/11/22 06:33:42;;;;;;;23.77;13.02;;;;;;;;;;5127429;27;20080;-65
2022/11/22 06:36:09;;;;;;;20.77;13.88;;;;;;;;;;5127460;27;20146;-64
2022/11/22 06:38:36;;;;;;;16.52;12.60;;;;;;;;;;5123422;27;20046;-64
2022/11/22 06:41:02;;;;;;;19.35;12.15;;;;;;;;;;5128264;27;20032;-65
2022/11/22 06:43:29;;;;;;;24.90;12.50;;;;;;;;;;5126378;27;20122;-64
2022/11/22 06:45:59;;;;;;;17.50;11.85;;;;;;;;;;5130976;27;20058;-65
2022/11/22 06:48:26;;;;;;;21.02;13.27;;;;;;;;;;5107227;27;20055;-65
2022/11/22 06:50:52;;;;;;;23.55;12.40;;;;;;;;;;5119996;27;20043;-65
2022/11/22 06:53:18;;;;;;;18.70;11.82;;;;;;;;;;5129566;27;20633;-64
2022/11/22 06:55:44;;;;;;;23.30;11.70;;;;;;;;;;5128933;27;20503;-64
2022/11/22 06:58:10;;;;;;;18.52;11.32;;;;;;;;;;5124074;27;20119;-64
2022/11/22 07:00:37;;;;;;;17.65;11.00;;;;;;;;;;5112595;27;20047;-65
2022/11/22 07:03:03;;;;;;;17.33;11.88;;;;;;;;;;5111307;27;20039;-65
2022/11/22 07:05:29;;;;;;;20.90;10.55;;;;;;;;;;5123625;27;20446;-65
2022/11/22 07:07:56;;;;;;;15.70;9.80;;;;;;;;;;5126875;27;20028;-65
2022/11/22 07:10:22;;;;;;;24.13;12.57;;;;;;;;;;5119793;27;20058;-64
2022/11/22 07:12:48;;;;;;;17.25;10.98;;;;;;;;;;5118603;27;20533;-64
2022/11/22 07:15:14;;;;;;;19.70;10.80;;;;;;;;;;5121455;27;20059;-64
2022/11/22 07:17:41;;;;;;;18.08;9.95;;;;;;;;;;5125225;27;20567;-64
2022/11/22 07:20:07;;;;;;;15.95;9.57;;;;;;;;;;5122512;27;20039;-65
2022/11/22 07:22:33;;;;;;;17.73;9.40;;;;;;;;;;5112382;27;20040;-64
2022/11/22 07:24:59;;;;;;;15.68;9.27;;;;;;;;;;5113402;27;20034;-65
2022/11/22 07:27:25;;;;;;;17.30;8.40;;;;;;;;;;5126968;27;20035;-64
2022/11/22 07:29:51;;;;;;;17.05;8.88;;;;;;;;;;5128168;27;20031;-64
2022/11/22 07:32:17;;;;;;;14.73;8.57;;;;;;;;;;5107469;27;20512;-66
2022/11/22 07:34:44;;;;;;;13.55;8.70;;;;;;;;;;5123851;27;20038;-65
2022/11/22 07:37:10;;;;;;;17.48;9.00;;;;;;;;;;5126150;27;20122;-65
2022/11/22 07:39:36;;;;;;;12.02;8.07;;;;;;;;;;5125573;27;20041;-64
2022/11/22 07:42:02;;;;;;;22.13;8.27;;;;;;;;;;5127249;27;20062;-64
2022/11/22 07:44:28;;;;;;;16.50;6.88;;;;;;;;;;5123248;27;20120;-64
2022/11/22 07:46:54;;;;;;;17.13;8.20;;;;;;;;;;5126669;27;20031;-64
2022/11/22 07:49:20;;;;;;;14.95;7.18;;;;;;;;;;5112823;27;20035;-65
2022/11/22 07:51:46;;;;;;;15.77;8.52;;;;;;;;;;5115926;27;20063;-64
2022/11/22 07:54:12;;;;;;;14.65;7.18;;;;;;;;;;5091807;27;20545;-64
2022/11/22 07:56:39;;;;;;;17.48;7.28;;;;;;;;;;5125759;27;20031;-65
2022/11/22 07:59:05;;;;;;;14.05;6.93;;;;;;;;;;5102270;27;20101;-65
2022/11/22 08:01:31;;;;;;;14.82;7.90;;;;;;;;;;5123797;27;20043;-65
2022/11/22 08:03:57;;;;;;;16.38;6.70;;;;;;;;;;5119849;27;20039;-64
2022/11/22 08:06:23;;;;;;;9.48;6.13;;;;;;;;;;5104939;28;20085;-64
2022/11/22 08:08:49;;;;;;;12.75;6.95;;;;;;;;;;5115226;27;20585;-65
2022/11/22 08:11:15;;;;;;;15.52;7.15;;;;;;;;;;5121655;27;20043;-65
2022/11/22 08:13:43;;;;;;;14.73;5.68;;;;;;;;;;5117379;27;20096;-65
2022/11/22 08:16:10;;;;;;;13.60;7.35;;;;;;;;;;5122200;27;20119;-64
2022/11/22 08:18:37;;;;;;;11.18;6.43;;;;;;;;;;5112439;27;20039;-64
2022/11/22 08:21:05;;;;;;;12.85;5.85;;;;;;;;;;5130392;27;20078;-64
2022/11/22 08:23:31;;;;;;;9.60;5.60;;;;;;;;;;5117895;27;20039;-64
2022/11/22 08:25:58;;;;;;;9.82;6.03;;;;;;;;;;5119775;27;20040;-65
2022/11/22 08:28:24;;;;;;;12.00;5.78;;;;;;;;;;5121273;27;20046;-65
2022/11/22 08:30:50;;;;;;;13.73;6.15;;;;;;;;;;5109222;27;20038;-64
2022/11/22 08:33:16;;;;;;;14.18;6.03;;;;;;;;;;5103500;27;20107;-64
2022/11/22 08:35:42;;;;;;;12.73;6.18;;;;;;;;;;5092830;27;20035;-64
2022/11/22 08:38:08;;;;;;;7.60;5.22;;;;;;;;;;5108114;27;20047;-64
2022/11/22 08:40:34;;;;;;;14.43;5.72;;;;;;;;;;5120836;27;20039;-65
2022/11/22 08:43:00;;;;;;;11.68;5.75;;;;;;;;;;5120215;27;20040;-64
2022/11/22 08:45:27;;;;;;;16.10;5.05;;;;;;;;;;5112203;27;20532;-64
2022/11/22 08:47:53;;;;;;;8.30;4.45;;;;;;;;;;5112381;27;20311;-64
2022/11/22 08:50:19;;;;;;;9.18;4.53;;;;;;;;;;5126789;27;20031;-62
2022/11/22 08:52:45;;;;;;;11.98;5.32;;;;;;;;;;5128156;27;20034;-62
2022/11/22 08:55:11;;;;;;;6.05;4.30;;;;;;;;;;5114297;27;20118;-62
2022/11/22 08:57:37;;;;;;;8.88;4.70;;;;;;;;;;5112136;27;20043;-62
2022/11/22 09:00:05;;;;;;;11.52;5.15;;;;;;;;;;5119846;27;20050;-62
2022/11/22 09:02:31;;;;;;;12.27;4.22;;;;;;;;;;5106450;27;20051;-62
2022/11/22 09:04:57;;;;;;;10.07;5.32;;;;;;;;;;5116079;27;20035;-63
2022/11/22 09:07:23;;;;;;;7.45;4.18;;;;;;;;;;5098026;28;20046;-62
2022/11/22 09:09:49;;;;;;;16.00;5.20;;;;;;;;;;5122400;27;20054;-62
2022/11/22 09:12:15;;;;;;;12.30;4.50;;;;;;;;;;5088841;28;20448;-62
2022/11/22 09:14:41;;;;;;;11.32;4.60;;;;;;;;;;5116098;27;20393;-63
2022/11/22 09:17:07;;;;;;;10.32;4.10;;;;;;;;;;5108156;27;20035;-63
2022/11/22 09:19:34;;;;;;;8.88;4.40;;;;;;;;;;5117439;27;20032;-62
2022/11/22 09:22:00;;;;;;;16.00;4.72;;;;;;;;;;5109838;27;20400;-63
2022/11/22 09:24:26;;;;;;;13.55;5.10;;;;;;;;;;5117664;27;20044;-62
2022/11/22 09:26:52;;;;;;;9.45;4.78;;;;;;;;;;5112872;27;20046;-63
2022/11/22 09:29:18;;;;;;;9.00;4.38;;;;;;;;;;5122746;27;20078;-63
2022/11/22 09:31:44;;;;;;;11.13;4.03;;;;;;;;;;5124171;27;20084;-63
2022/11/22 09:34:10;;;;;;;15.75;4.65;;;;;;;;;;5122091;27;20046;-63
2022/11/22 09:36:36;;;;;;;9.55;5.30;;;;;;;;;;5122627;28;20910;-63
2022/11/22 09:39:02;;;;;;;13.02;4.38;;;;;;;;;;5108217;28;20043;-63
2022/11/22 09:41:28;;;;;;;10.98;4.90;;;;;;;;;;5108461;28;20032;-63
2022/11/22 09:43:55;;;;;;;10.95;4.20;;;;;;;;;;5125801;27;20023;-63
2022/11/22 09:46:33;;;;;;;13.85;5.28;;;;;;;;;;5110521;27;20039;-63
2022/11/22 09:49:02;;;;;;;13.30;5.32;;;;;;;;;;5100697;28;20039;-63
2022/11/22 09:51:49;;;;;;;7.82;4.00;;;;;;;;;;5129330;27;20054;-63
2022/11/22 09:54:17;;;;;;;16.35;5.18;;;;;;;;;;5130586;27;20111;-63
2022/11/22 09:56:44;;;;;;;30.52;5.63;;;;;;;;;;5121711;27;20042;-63
2022/11/22 09:59:16;;;;;;;6.03;3.85;;;;;;;;;;5127099;27;20054;-62
2022/11/22 10:01:44;;;;;;;9.98;3.85;;;;;;;;;;5123006;27;20035;-63
2022/11/22 10:04:11;;;;;;;8.10;4.82;;;;;;;;;;5121826;27;20039;-63
2022/11/22 10:06:37;;;;;;;9.63;4.15;;;;;;;;;;5118269;27;20031;-63
2022/11/22 10:09:22;;;;;;;15.43;4.80;;;;;;;;;;5120449;27;20097;-63
2022/11/22 10:12:14;;;;;;;8.20;4.32;;;;;;;;;;5118010;27;20040;-62
2022/11/22 10:14:52;;;;;;;10.60;3.80;;;;;;;;;;5098465;27;20043;-63
2022/11/22 10:17:31;;;;;;;8.00;3.75;;;;;;;;;;5126078;27;20061;-62
2022/11/22 10:20:15;;;;;;;8.63;3.60;;;;;;;;;;5129102;27;20061;-63
2022/11/22 10:22:42;;;;;;;5.60;3.35;;;;;;;;;;5121957;27;20684;-63
2022/11/22 10:25:40;;;;;;;11.77;3.88;;;;;;;;;;5122722;27;20043;-63
2022/11/22 10:28:15;;;;;;;4.75;3.45;;;;;;;;;;5066518;28;20483;-63
2022/11/22 10:30:44;;;;;;;5.35;3.50;;;;;;;;;;5112093;27;20119;-63
2022/11/22 10:33:15;;;;;;;9.45;4.53;;;;;;;;;;5105278;27;20071;-63
2022/11/22 10:35:59;;;;;;;8.55;3.42;;;;;;;;;;5114003;27;20043;-63
2022/11/22 10:38:43;;;;;;;6.00;4.43;;;;;;;;;;5124806;27;20032;-64
2022/11/22 10:41:17;;;;;;;7.13;3.22;;;;;;;;;;5122259;27;20122;-63
2022/11/22 10:43:46;;;;;;;8.88;3.45;;;;;;;;;;5121577;27;20464;-63
2022/11/22 10:46:19;;;;;;;8.82;3.05;;;;;;;;;;5103559;27;20031;-63
2022/11/22 10:48:57;;;;;;;6.28;3.20;;;;;;;;;;5115042;27;20031;-63
2022/11/22 10:51:33;;;;;;;11.55;4.15;;;;;;;;;;5111813;27;20031;-63
2022/11/22 10:54:12;;;;;;;8.93;3.80;;;;;;;;;;5121758;27;20043;-63
2022/11/22 10:56:48;;;;;;;7.95;2.90;;;;;;;;;;5118942;27;20047;-63
2022/11/22 10:59:33;;;;;;;9.32;4.05;;;;;;;;;;5110821;27;20058;-63
2022/11/22 11:02:29;;;;;;;8.88;3.38;;;;;;;;;;5115306;27;20050;-63
2022/11/22 11:04:55;;;;;;;6.88;3.85;;;;;;;;;;5127784;27;20034;-63
2022/11/22 11:07:23;;;;;;;9.02;4.13;;;;;;;;;;5112243;27;20049;-63
2022/11/22 11:09:52;;;;;;;8.38;4.55;;;;;;;;;;5127111;27;20087;-63
2022/11/22 11:12:29;;;;;;;14.55;4.00;;;;;;;;;;5128741;27;20094;-63
2022/11/22 11:14:57;;;;;;;4.85;3.05;;;;;;;;;;5116074;27;20044;-63
2022/11/22 11:17:26;;;;;;;5.25;2.85;;;;;;;;;;5123218;27;20051;-63
2022/11/22 11:19:52;;;;;;;7.60;3.65;;;;;;;;;;5130359;27;20035;-63
2022/11/22 11:22:21;;;;;;;6.45;3.67;;;;;;;;;;5097523;28;20536;-63
2022/11/22 11:24:47;;;;;;;9.63;3.17;;;;;;;;;;5114699;27;20032;-63
2022/11/22 11:27:15;;;;;;;7.35;2.90;;;;;;;;;;5122574;27;20067;-64
2022/11/22 11:29:41;;;;;;;6.63;3.63;;;;;;;;;;5112005;27;20087;-63
2022/11/22 11:32:12;;;;;;;9.57;2.85;;;;;;;;;;5123951;27;20032;-63
2022/11/22 11:34:40;;;;;;;6.88;2.85;;;;;;;;;;5120084;27;20384;-63
2022/11/22 11:37:09;;;;;;;6.82;3.28;;;;;;;;;;5108521;27;20554;-63
2022/11/22 11:39:35;;;;;;;5.47;2.72;;;;;;;;;;5119100;27;20035;-64
2022/11/22 11:42:20;;;;;;;13.20;2.55;;;;;;;;;;5108710;27;20039;-63
2022/11/22 11:44:46;;;;;;;4.45;2.45;;;;;;;;;;5116966;27;20035;-63
2022/11/22 11:47:18;;;;;;;9.10;2.63;;;;;;;;;;5105580;27;20541;-63
2022/11/22 11:49:50;;;;;;;8.80;3.03;;;19.60;99.90;;;;;;5101707;27;20043;-63
2022/11/22 11:52:21;;;;;;;7.10;2.80;;;6.60;99.90;;;;;;5119202;27;20058;-63
2022/11/22 11:54:50;;;;;;;6.90;2.88;;;6.30;99.90;;;;;;5122464;27;20031;-63
2022/11/22 11:57:23;;;;;;;4.80;2.22;;;6.30;99.90;;;;;;5119453;27;20614;-63
2022/11/22 11:59:51;;;;;;;6.45;2.60;;;6.30;99.90;;;;;;5116943;27;20054;-63
2022/11/22 12:02:29;;;;;;;7.38;2.80;;;6.40;99.90;;;;;;5107531;27;20043;-63
2022/11/22 12:05:00;;;;;;;6.07;2.78;;;6.40;99.90;;;;;;5123238;27;20513;-63
2022/11/22 12:07:37;;;;;;;6.22;3.03;;;6.40;99.90;;;;;;5122202;27;20039;-63
2022/11/22 12:10:26;;;;;;;9.10;2.42;;;6.40;99.90;;;;;;5101663;27;20406;-63
2022/11/22 12:13:12;;;;;;;5.80;2.67;;;6.40;99.90;;;;;;5128683;27;20043;-64
2022/11/22 12:16:13;;;;;;;6.45;2.35;;;6.40;99.90;;;;;;5105228;27;20039;-63
2022/11/22 12:18:53;;;;;;;4.43;2.15;;;6.40;99.90;;;;;;5125175;27;20119;-63
2022/11/22 12:21:22;;;;;;;3.90;2.17;;;6.40;99.90;;;;;;5119730;27;20039;-63
2022/11/22 12:24:10;;;;;;;7.53;2.17;;;6.50;99.90;;;;;;5110056;27;20387;-63
2022/11/22 12:26:36;;;;;;;7.18;2.22;;;6.50;99.90;;;;;;5121133;27;20027;-63
2022/11/22 12:29:03;;;;;;;4.63;2.20;;;6.50;99.90;;;;;;5119336;27;20322;-63
2022/11/22 12:31:58;;;;;;;7.90;2.80;;;6.50;99.90;;;;;;5109751;27;20164;-63
2022/11/22 12:34:52;;;;;;;5.72;2.17;;;6.50;99.90;;;;;;5107203;27;20103;-63
2022/11/22 12:37:24;;;;;;;4.63;2.05;;;6.50;99.90;;;;;;5099998;27;20074;-63
2022/11/22 12:39:54;;;;;;;4.63;2.30;;;6.50;99.90;;;;;;5122279;27;20035;-63
2022/11/22 12:43:02;;;;;;;3.53;1.63;;;6.50;99.90;;;;;;5118140;27;20511;-63
2022/11/22 12:45:39;;;;;;;5.10;2.00;;;6.50;99.90;;;;;;5111624;27;20097;-63
2022/11/22 12:48:17;;;;;;;3.78;1.98;;;6.50;99.90;;;;;;5127932;27;20492;-63
2022/11/22 12:50:49;;;;;;;4.75;1.85;;;6.50;99.90;;;;;;5107443;27;20046;-64
2022/11/22 12:53:34;;;;;;;2.35;1.90;;;6.50;99.90;;;;;;5128136;27;20035;-64
2022/11/22 12:56:09;;;;;;;5.10;2.92;;;6.50;99.90;;;;;;5126967;27;20050;-64
2022/11/22 12:58:56;;;;;;;10.73;3.35;;;6.50;99.90;;;;;;5124965;27;20054;-63
2022/11/22 13:01:38;;;;;;;4.43;2.30;;;6.50;99.90;;;;;;5115859;27;20047;-64
2022/11/22 13:04:10;;;;;;;3.80;2.47;;;6.50;99.90;;;;;;5127590;27;20031;-64
2022/11/22 13:06:53;;;;;;;4.15;2.72;;;6.60;99.90;;;;;;5123160;27;20385;-64
2022/11/22 13:09:32;;;;;;;5.43;2.40;;;6.60;99.90;;;;;;5100400;27;20039;-64
2022/11/22 13:12:04;;;;;;;4.85;2.60;;;6.60;99.90;;;;;;5124476;27;20123;-64
2022/11/22 13:14:34;;;;;;;7.57;3.45;;;6.60;99.90;;;;;;5124928;27;20069;-64
2022/11/22 13:17:06;;;;;;;5.38;2.47;;;6.60;99.90;;;;;;5128933;27;20039;-64
2022/11/22 13:19:35;;;;;;;6.25;2.10;;;6.60;99.90;;;;;;5119055;27;20118;-63
2022/11/22 13:22:38;;;;;;;6.28;2.70;;;6.60;99.90;;;;;;5104880;28;20039;-64
2022/11/22 13:25:13;;;;;;;6.80;2.95;;;6.60;99.90;;;;;;5123974;27;20027;-64
2022/11/22 13:27:45;;;;;;;6.70;2.40;;;6.60;99.90;;;;;;5118674;27;20480;-64
2022/11/22 13:30:38;;;;;;;6.72;2.60;;;6.60;99.90;;;;;;5124875;27;20373;-64
2022/11/22 13:33:04;;;;;;;;;;;6.60;99.90;;;;;;5098079;28;20070;-64
2022/11/22 13:35:33;;;;;;;12.10;3.63;;;6.60;99.90;;;;;;5111787;28;19929;-64
2022/11/22 13:38:05;;;;;;;5.15;2.38;;;6.70;99.90;;;;;;5120796;28;20039;-63
2022/11/22 13:40:41;;;;;;;4.70;2.22;;;6.60;99.90;;;;;;5121531;28;20054;-64
2022/11/22 13:43:12;;;;;;;5.00;2.78;;;6.70;99.90;;;;;;5112982;28;20035;-64
2022/11/22 13:45:51;;;;;;;6.20;2.38;;;6.70;99.90;;;;;;5123711;28;20099;-64
2022/11/22 13:48:38;;;;;;;8.15;2.90;;;6.70;99.90;;;;;;5101747;28;20039;-63
2022/11/22 13:51:10;;;;;;;6.53;2.15;;;6.70;99.90;;;;;;5124931;28;20078;-64
2022/11/22 13:53:44;;;;;;;3.97;2.17;;;6.70;99.90;;;;;;5113618;28;20031;-64
2022/11/22 13:56:19;;;;;;;7.32;2.35;;;6.70;99.90;;;;;;5116523;28;20077;-64
2022/11/22 13:58:54;;;;;;;4.82;2.65;;;6.80;99.90;;;;;;5118894;28;20035;-64
2022/11/22 14:01:35;;;;;;;4.30;2.35;;;6.70;99.90;;;;;;5114629;28;20043;-64
2022/11/22 14:04:18;;;;;;;5.03;2.30;;;6.70;99.90;;;;;;5113524;28;20031;-64
2022/11/22 14:07:12;;;;;;;7.15;2.10;;;6.70;99.90;;;;;;5104613;28;20039;-64
2022/11/22 14:09:52;;;;;;;8.00;1.70;;;6.80;99.90;;;;;;5104490;28;20082;-64
2022/11/22 14:12:39;;;;;;;5.55;2.40;;;6.80;99.90;;;;;;5121115;28;20112;-64
2022/11/22 14:15:26;;;;;;;4.18;2.20;;;6.80;99.90;;;;;;5118208;28;20054;-63
2022/11/22 14:18:22;;;;;;;4.55;1.92;;;6.80;99.90;;;;;;5123045;28;20459;-63
2022/11/22 14:20:59;;;;;;;3.00;1.73;;;6.80;99.90;;;;;;5081704;28;20051;-63
2022/11/22 14:23:58;;;;;;;6.45;2.10;;;6.80;99.90;;;;;;5117991;28;20064;-63
2022/11/22 14:26:40;;;;;;;4.35;2.08;;;6.80;99.90;;;;;;5125411;28;20036;-63
2022/11/22 14:29:43;;;;;;;8.10;2.20;;;6.70;99.90;;;;;;5116645;27;20035;-63
2022/11/22 14:32:37;;;;;;;6.07;1.88;;;6.70;99.90;;;;;;5124930;27;20039;-63
2022/11/22 14:35:02;;;;;;;9.55;2.35;;;6.70;99.90;;;;;;5109539;27;20096;-63